createdAt,value
2018-05-03T00:00:04.299Z,16.10
2018-05-03T00:02:32.419Z,16.10
2018-05-03T00:05:00.568Z,16.10
2018-05-03T00:07:28.672Z,16.10
2018-05-03T00:09:56.790Z,16.00
2018-05-03T00:12:24.896Z,16.00
2018-05-03T00:14:53.003Z,16.00
2018-05-03T00:17:21.127Z,16.00
2018-05-03T00:19:49.284Z,15.90
2018-05-03T00:22:17.379Z,15.90
2018-05-03T00:24:45.577Z,15.90
2018-05-03T00:27:13.779Z,15.90
2018-05-03T00:29:41.884Z,15.80
2018-05-03T00:32:10.051Z,15.80
2018-05-03T00:34:38.183Z,15.80
2018-05-03T00:37:06.312Z,15.80
2018-05-03T00:39:34.422Z,15.70
2018-05-03T00:42:02.552Z,15.70
2018-05-03T00:44:30.988Z,15.70
2018-05-03T00:46:59.119Z,15.60
2018-05-03T00:49:27.246Z,15.70
2018-05-03T00:51:55.395Z,15.60
2018-05-03T00:54:35.444Z,15.60
2018-05-03T00:57:03.565Z,15.60
2018-05-03T00:59:31.660Z,15.60
2018-05-03T01:02:00.607Z,15.50
2018-05-03T01:04:28.731Z,15.50
2018-05-03T01:06:57.651Z,15.50
2018-05-03T01:09:25.779Z,15.40
2018-05-03T01:11:53.894Z,15.50
2018-05-03T01:14:22.782Z,15.40
2018-05-03T01:16:51.665Z,15.40
2018-05-03T01:19:20.363Z,15.40
2018-05-03T01:21:49.244Z,15.30
2018-05-03T01:24:17.392Z,15.30
2018-05-03T01:26:45.500Z,15.30
2018-05-03T01:29:13.713Z,15.30
2018-05-03T01:31:41.895Z,15.30
2018-05-03T01:34:10.025Z,15.20
2018-05-03T01:36:38.171Z,15.20
2018-05-03T01:39:06.293Z,15.20
2018-05-03T01:41:35.182Z,15.10
2018-05-03T01:44:03.378Z,15.10
2018-05-03T01:46:32.268Z,15.10
2018-05-03T01:49:01.157Z,15.00
2018-05-03T01:51:29.251Z,15.00
2018-05-03T01:53:57.546Z,15.00
2018-05-03T01:56:25.636Z,15.00
2018-05-03T01:58:53.730Z,14.90
2018-05-03T02:01:21.961Z,14.90
2018-05-03T02:03:50.167Z,14.90
2018-05-03T02:06:18.320Z,14.80
2018-05-03T02:08:46.443Z,14.80
2018-05-03T02:11:14.590Z,14.70
2018-05-03T02:13:42.747Z,14.70
2018-05-03T02:16:11.662Z,14.60
2018-05-03T02:18:39.779Z,14.60
2018-05-03T02:21:07.885Z,14.60
2018-05-03T02:23:36.800Z,14.50
2018-05-03T02:26:04.890Z,14.50
2018-05-03T02:28:33.020Z,14.40
2018-05-03T02:31:01.144Z,14.40
2018-05-03T02:33:29.276Z,14.30
2018-05-03T02:35:57.432Z,14.20
2018-05-03T02:38:25.544Z,14.20
2018-05-03T02:40:54.428Z,14.10
2018-05-03T02:43:23.269Z,14.10
2018-05-03T02:45:51.395Z,14.10
2018-05-03T02:48:20.289Z,14.00
2018-05-03T02:50:48.520Z,13.90
2018-05-03T02:53:16.676Z,13.90
2018-05-03T02:55:45.553Z,13.80
2018-05-03T02:58:25.608Z,13.80
2018-05-03T03:01:23.746Z,13.70
2018-05-03T03:04:09.476Z,13.70
2018-05-03T03:06:55.335Z,13.60
2018-05-03T03:09:41.076Z,13.60
2018-05-03T03:12:26.911Z,13.50
2018-05-03T03:15:13.370Z,13.40
2018-05-03T03:18:14.262Z,13.40
2018-05-03T03:21:12.789Z,13.30
2018-05-03T03:23:59.211Z,13.20
2018-05-03T03:27:00.505Z,13.10
2018-05-03T03:29:43.432Z,13.10
2018-05-03T03:32:23.244Z,13.00
2018-05-03T03:35:03.183Z,13.00
2018-05-03T03:37:43.146Z,12.90
2018-05-03T03:40:25.075Z,12.80
2018-05-03T03:43:26.708Z,12.80
2018-05-03T03:45:54.856Z,12.70
2018-05-03T03:48:22.989Z,12.70
2018-05-03T03:50:51.296Z,12.60
2018-05-03T03:53:20.303Z,12.50
2018-05-03T03:55:48.360Z,12.50
2018-05-03T03:58:16.513Z,12.50
2018-05-03T04:00:44.816Z,12.50
2018-05-03T04:03:12.933Z,12.40
2018-05-03T04:05:41.168Z,12.30
2018-05-03T04:08:09.341Z,12.30
2018-05-03T04:10:38.242Z,12.20
2018-05-03T04:13:06.372Z,12.20
2018-05-03T04:15:34.512Z,12.20
2018-05-03T04:18:14.531Z,12.10
2018-05-03T04:21:03.576Z,12.10
2018-05-03T04:23:43.501Z,12.00
2018-05-03T04:26:19.479Z,12.00
2018-05-03T04:28:47.580Z,11.90
2018-05-03T04:31:15.703Z,11.90
2018-05-03T04:33:44.701Z,11.90
2018-05-03T04:36:13.588Z,11.80
2018-05-03T04:38:42.520Z,11.80
2018-05-03T04:41:10.627Z,11.80
2018-05-03T04:43:38.778Z,11.80
2018-05-03T04:46:06.872Z,11.70
2018-05-03T04:48:34.980Z,11.70
2018-05-03T04:51:03.103Z,11.70
2018-05-03T04:53:31.195Z,11.70
2018-05-03T04:55:59.306Z,11.70
2018-05-03T04:58:27.413Z,11.70
2018-05-03T05:00:56.307Z,11.80
2018-05-03T05:03:24.415Z,11.80
2018-05-03T05:05:54.140Z,11.90
2018-05-03T05:08:22.264Z,12.00
2018-05-03T05:10:51.139Z,12.10
2018-05-03T05:13:19.243Z,12.10
2018-05-03T05:15:47.339Z,12.10
2018-05-03T05:18:15.457Z,12.20
2018-05-03T05:20:43.556Z,12.20
2018-05-03T05:23:12.448Z,12.30
2018-05-03T05:25:40.555Z,12.30
2018-05-03T05:28:08.695Z,12.30
2018-05-03T05:30:36.897Z,12.30
2018-05-03T05:33:05.004Z,12.30
2018-05-03T05:35:33.189Z,12.40
2018-05-03T05:38:01.361Z,12.40
2018-05-03T05:40:29.499Z,12.40
2018-05-03T05:42:58.428Z,12.50
2018-05-03T05:45:26.567Z,12.50
2018-05-03T05:47:54.671Z,12.50
2018-05-03T05:50:22.959Z,12.50
2018-05-03T05:52:51.074Z,12.60
2018-05-03T05:55:19.199Z,12.60
2018-05-03T05:57:47.341Z,12.70
2018-05-03T06:00:15.455Z,12.80
2018-05-03T06:02:43.580Z,12.80
2018-05-03T06:05:11.695Z,12.90
2018-05-03T06:07:39.801Z,13.10
2018-05-03T06:10:07.903Z,13.20
2018-05-03T06:12:36.030Z,13.40
2018-05-03T06:15:04.975Z,13.80
2018-05-03T06:17:33.095Z,13.80
2018-05-03T06:20:01.986Z,14.20
2018-05-03T06:22:30.109Z,14.20
2018-05-03T06:24:58.231Z,14.50
2018-05-03T06:27:26.376Z,14.80
2018-05-03T06:29:54.495Z,15.00
2018-05-03T06:32:23.376Z,15.50
2018-05-03T06:34:51.494Z,15.50
2018-05-03T06:37:19.623Z,15.70
2018-05-03T06:39:47.751Z,15.90
2018-05-03T06:42:15.912Z,16.00
2018-05-03T06:44:44.032Z,16.20
2018-05-03T06:47:12.144Z,16.30
2018-05-03T06:49:40.296Z,16.30
2018-05-03T06:52:08.396Z,16.40
2018-05-03T06:54:36.517Z,16.50
2018-05-03T06:57:04.662Z,16.60
2018-05-03T06:59:32.747Z,16.60
2018-05-03T07:02:00.877Z,16.70
2018-05-03T07:04:29.012Z,16.70
2018-05-03T07:06:57.100Z,16.80
2018-05-03T07:09:25.187Z,16.80
2018-05-03T07:11:53.317Z,16.90
2018-05-03T07:14:21.404Z,16.90
2018-05-03T07:16:49.518Z,16.90
2018-05-03T07:19:17.625Z,17.00
2018-05-03T07:21:45.715Z,17.10
2018-05-03T07:24:13.839Z,17.20
2018-05-03T07:26:41.959Z,17.30
2018-05-03T07:29:10.083Z,17.40
2018-05-03T07:31:38.265Z,17.50
2018-05-03T07:34:07.131Z,17.90
2018-05-03T07:36:36.008Z,18.10
2018-05-03T07:39:04.126Z,18.10
2018-05-03T07:41:32.236Z,18.40
2018-05-03T07:44:00.640Z,18.60
2018-05-03T07:46:28.775Z,18.80
2018-05-03T07:48:56.890Z,19.10
2018-05-03T07:51:24.985Z,19.30
2018-05-03T07:53:53.087Z,19.60
2018-05-03T07:56:21.187Z,19.80
2018-05-03T07:58:49.320Z,20.00
2018-05-03T08:01:18.226Z,20.50
2018-05-03T08:03:47.086Z,20.70
2018-05-03T08:06:15.205Z,20.70
2018-05-03T08:08:43.308Z,20.90
2018-05-03T08:11:11.480Z,21.10
2018-05-03T08:13:39.619Z,21.30
2018-05-03T08:16:07.734Z,21.50
2018-05-03T08:18:35.836Z,21.70
2018-05-03T08:21:03.948Z,21.90
2018-05-03T08:23:32.828Z,22.30
2018-05-03T08:26:00.932Z,22.20
2018-05-03T08:28:29.850Z,22.70
2018-05-03T08:30:58.729Z,22.90
2018-05-03T08:33:26.842Z,22.80
2018-05-03T08:35:54.959Z,23.00
2018-05-03T08:38:23.457Z,23.20
2018-05-03T08:40:52.327Z,23.60
2018-05-03T08:43:20.488Z,23.60
2018-05-03T08:45:48.623Z,23.80
2018-05-03T08:48:16.749Z,23.90
2018-05-03T08:50:44.867Z,24.10
2018-05-03T08:53:12.999Z,24.20
2018-05-03T08:55:41.200Z,24.40
2018-05-03T08:58:10.009Z,24.60
2018-05-03T09:00:38.904Z,24.80
2018-05-03T09:03:07.796Z,24.90
2018-05-03T09:05:36.684Z,25.10
2018-05-03T09:08:04.796Z,25.00
2018-05-03T09:10:32.964Z,25.20
2018-05-03T09:13:01.105Z,25.30
2018-05-03T09:15:29.209Z,25.50
2018-05-03T09:17:58.081Z,25.80
2018-05-03T09:20:26.976Z,25.90
2018-05-03T09:22:55.068Z,25.90
2018-05-03T09:25:23.954Z,26.30
2018-05-03T09:27:52.127Z,26.20
2018-05-03T09:30:20.326Z,26.40
2018-05-03T09:32:49.179Z,26.80
2018-05-03T09:35:17.277Z,26.70
2018-05-03T09:37:46.211Z,27.00
2018-05-03T09:40:14.331Z,26.90
2018-05-03T09:42:43.235Z,27.20
2018-05-03T09:45:12.971Z,27.20
2018-05-03T09:47:41.825Z,27.20
2018-05-03T09:50:09.926Z,27.20
2018-05-03T09:52:38.048Z,27.30
2018-05-03T09:55:06.166Z,27.30
2018-05-03T09:57:34.280Z,27.30
2018-05-03T10:00:03.156Z,27.40
2018-05-03T10:02:32.035Z,27.40
2018-05-03T10:05:00.128Z,27.40
2018-05-03T10:07:29.000Z,27.50
2018-05-03T10:09:57.115Z,27.50
2018-05-03T10:12:25.302Z,27.60
2018-05-03T10:14:53.397Z,27.60
2018-05-03T10:17:21.516Z,27.70
2018-05-03T10:19:49.672Z,27.70
2018-05-03T10:22:17.854Z,27.70
2018-05-03T10:24:46.668Z,27.80
2018-05-03T10:27:14.772Z,27.80
2018-05-03T10:29:43.036Z,27.80
2018-05-03T10:32:11.168Z,27.90
2018-05-03T10:34:39.319Z,27.90
2018-05-03T10:37:07.461Z,27.90
2018-05-03T10:39:35.556Z,27.90
2018-05-03T10:42:03.730Z,27.90
2018-05-03T10:44:31.793Z,28.00
2018-05-03T10:46:59.904Z,28.00
2018-05-03T10:49:28.038Z,28.00
2018-05-03T10:51:56.170Z,28.10
2018-05-03T10:54:24.262Z,28.20
2018-05-03T10:56:52.403Z,28.20
2018-05-03T10:59:20.520Z,28.20
2018-05-03T11:01:48.628Z,28.30
2018-05-03T11:04:16.733Z,28.30
2018-05-03T11:06:44.895Z,28.30
2018-05-03T11:09:13.821Z,28.30
2018-05-03T11:11:41.944Z,28.30
2018-05-03T11:14:10.043Z,28.20
2018-05-03T11:16:38.228Z,28.30
2018-05-03T11:19:06.285Z,28.30
2018-05-03T11:21:34.388Z,28.30
2018-05-03T11:24:02.509Z,28.30
2018-05-03T11:26:30.609Z,28.30
2018-05-03T11:28:58.744Z,28.30
2018-05-03T11:31:26.911Z,28.40
2018-05-03T11:33:54.977Z,28.40
2018-05-03T11:36:23.139Z,28.50
2018-05-03T11:38:52.015Z,28.60
2018-05-03T11:41:20.112Z,28.60
2018-05-03T11:43:48.233Z,28.70
2018-05-03T11:46:16.357Z,28.70
2018-05-03T11:48:45.242Z,28.80
2018-05-03T11:51:13.340Z,28.80
2018-05-03T11:53:41.500Z,28.90
2018-05-03T11:56:10.385Z,29.10
2018-05-03T11:58:38.526Z,29.10
2018-05-03T12:01:06.627Z,29.10
2018-05-03T12:03:34.737Z,29.20
2018-05-03T12:06:03.660Z,29.40
2018-05-03T12:08:32.520Z,29.50
2018-05-03T12:11:01.409Z,29.60
2018-05-03T12:13:30.291Z,29.70
2018-05-03T12:15:58.409Z,29.60
2018-05-03T12:18:26.576Z,29.70
2018-05-03T12:20:54.746Z,29.80
2018-05-03T12:23:23.629Z,30.00
2018-05-03T12:25:51.739Z,30.00
2018-05-03T12:28:19.856Z,30.00
2018-05-03T12:30:47.973Z,30.20
2018-05-03T12:33:16.863Z,30.30
2018-05-03T12:35:45.731Z,30.40
2018-05-03T12:38:13.838Z,30.30
2018-05-03T12:40:42.717Z,30.50
2018-05-03T12:43:10.865Z,30.50
2018-05-03T12:45:38.976Z,30.60
2018-05-03T12:48:07.138Z,30.60
2018-05-03T12:50:35.282Z,30.70
2018-05-03T12:53:03.400Z,30.80
2018-05-03T12:55:31.529Z,30.80
2018-05-03T12:57:59.648Z,30.90
2018-05-03T13:00:27.773Z,30.90
2018-05-03T13:02:55.927Z,30.90
2018-05-03T13:05:24.030Z,31.00
2018-05-03T13:07:52.137Z,31.00
2018-05-03T13:10:20.314Z,31.10
2018-05-03T13:12:48.500Z,31.10
2018-05-03T13:15:17.400Z,31.20
2018-05-03T13:17:45.488Z,31.20
2018-05-03T13:20:13.651Z,31.30
2018-05-03T13:22:42.471Z,31.40
2018-05-03T13:25:10.593Z,31.40
2018-05-03T13:27:38.731Z,31.50
2018-05-03T13:30:06.845Z,31.50
2018-05-03T13:32:34.968Z,31.50
2018-05-03T13:35:03.076Z,31.60
2018-05-03T13:37:31.227Z,31.60
2018-05-03T13:40:00.158Z,31.70
2018-05-03T13:42:28.247Z,31.70
2018-05-03T13:44:56.363Z,31.80
2018-05-03T13:47:24.471Z,31.80
2018-05-03T13:49:53.358Z,31.80
2018-05-03T13:52:22.237Z,31.80
2018-05-03T13:54:50.349Z,31.80
2018-05-03T13:57:18.456Z,31.80
2018-05-03T13:59:46.595Z,31.80
2018-05-03T14:02:14.730Z,31.70
2018-05-03T14:04:42.842Z,31.70
2018-05-03T14:07:11.797Z,31.60
2018-05-03T14:09:39.868Z,31.50
2018-05-03T14:12:07.986Z,31.50
2018-05-03T14:14:36.858Z,31.50
2018-05-03T14:17:04.998Z,31.50
2018-05-03T14:19:33.088Z,31.50
2018-05-03T14:22:01.214Z,31.50
2018-05-03T14:24:30.151Z,31.40
2018-05-03T14:26:58.293Z,31.40
2018-05-03T14:29:27.199Z,31.40
2018-05-03T14:31:56.081Z,31.40
2018-05-03T14:34:24.992Z,31.40
2018-05-03T14:36:53.081Z,31.40
2018-05-03T14:39:21.204Z,31.30
2018-05-03T14:41:49.317Z,31.30
2018-05-03T14:44:17.419Z,31.30
2018-05-03T14:46:45.536Z,31.30
2018-05-03T14:49:13.636Z,31.30
2018-05-03T14:51:41.732Z,31.30
2018-05-03T14:54:09.857Z,31.30
2018-05-03T14:56:37.959Z,31.30
2018-05-03T14:59:06.839Z,31.20
2018-05-03T15:01:34.959Z,31.20
2018-05-03T15:04:03.127Z,31.20
2018-05-03T15:06:31.329Z,31.20
2018-05-03T15:08:59.392Z,31.20
2018-05-03T15:11:27.536Z,31.20
2018-05-03T15:13:56.520Z,31.00
2018-05-03T15:16:24.625Z,31.00
2018-05-03T15:18:52.724Z,31.00
2018-05-03T15:21:20.867Z,30.90
2018-05-03T15:23:49.754Z,30.70
2018-05-03T15:26:18.612Z,30.50
2018-05-03T15:28:46.720Z,30.50
2018-05-03T15:31:14.859Z,30.50
2018-05-03T15:33:43.016Z,30.40
2018-05-03T15:36:11.053Z,30.30
2018-05-03T15:38:39.933Z,30.10
2018-05-03T15:41:08.040Z,30.10
2018-05-03T15:43:36.140Z,30.00
2018-05-03T15:46:04.268Z,29.90
2018-05-03T15:48:32.367Z,29.80
2018-05-03T15:51:01.255Z,29.70
2018-05-03T15:53:29.436Z,29.60
2018-05-03T15:55:58.402Z,29.50
2018-05-03T15:58:26.503Z,29.50
2018-05-03T16:00:54.618Z,29.40
2018-05-03T16:03:22.719Z,29.20
2018-05-03T16:05:50.828Z,29.10
2018-05-03T16:08:19.692Z,28.90
2018-05-03T16:10:47.788Z,28.90
2018-05-03T16:13:15.906Z,28.80
2018-05-03T16:15:44.021Z,28.70
2018-05-03T16:18:12.892Z,28.40
2018-05-03T16:20:40.998Z,28.40
2018-05-03T16:23:09.105Z,28.30
2018-05-03T16:25:37.232Z,28.20
2018-05-03T16:28:05.334Z,28.10
2018-05-03T16:30:33.444Z,27.90
2018-05-03T16:33:02.354Z,27.60
2018-05-03T16:35:30.452Z,27.60
2018-05-03T16:37:58.552Z,27.50
2018-05-03T16:40:26.676Z,27.30
2018-05-03T16:42:55.561Z,27.00
2018-05-03T16:45:24.444Z,26.90
2018-05-03T16:47:53.332Z,26.70
2018-05-03T16:50:21.452Z,26.70
2018-05-03T16:52:49.617Z,26.60
2018-05-03T16:55:18.490Z,26.30
2018-05-03T16:57:46.587Z,26.30
2018-05-03T17:00:14.724Z,26.20
2018-05-03T17:02:42.832Z,26.00
2018-05-03T17:05:11.819Z,25.60
2018-05-03T17:07:40.688Z,25.50
2018-05-03T17:10:08.804Z,25.40
2018-05-03T17:12:37.705Z,25.10
2018-05-03T17:15:06.616Z,25.00
2018-05-03T17:17:34.736Z,25.00
2018-05-03T17:20:02.923Z,24.90
2018-05-03T17:22:31.089Z,24.80
2018-05-03T17:24:59.184Z,24.80
2018-05-03T17:27:28.154Z,24.60
2018-05-03T17:29:56.232Z,24.50
2018-05-03T17:32:24.786Z,24.50
2018-05-03T17:34:53.765Z,24.40
2018-05-03T17:37:21.871Z,24.30
2018-05-03T17:39:50.081Z,24.30
2018-05-03T17:42:18.224Z,24.10
2018-05-03T17:44:46.330Z,24.10
2018-05-03T17:47:14.472Z,24.00
2018-05-03T17:49:42.596Z,24.00
2018-05-03T17:52:10.689Z,23.90
2018-05-03T17:54:38.913Z,23.90
2018-05-03T17:57:07.900Z,23.70
2018-05-03T17:59:36.032Z,23.70
2018-05-03T18:02:04.128Z,23.70
2018-05-03T18:04:32.244Z,23.60
2018-05-03T18:07:00.351Z,23.60
2018-05-03T18:09:28.460Z,23.50
2018-05-03T18:11:57.580Z,23.30
2018-05-03T18:14:25.673Z,23.30
2018-05-03T18:19:14.595Z,23.20
2018-05-03T18:21:42.694Z,23.10
2018-05-03T18:24:11.554Z,22.90
2018-05-03T18:26:39.731Z,22.90
2018-05-03T18:29:07.848Z,22.80
2018-05-03T18:31:35.959Z,22.70
2018-05-03T18:34:04.086Z,22.60
2018-05-03T18:36:32.187Z,22.50
2018-05-03T18:39:00.301Z,22.40
2018-05-03T18:41:28.437Z,22.30
2018-05-03T18:43:56.668Z,22.10
2018-05-03T18:46:25.464Z,21.90
2018-05-03T18:48:53.576Z,21.80
2018-05-03T18:51:22.491Z,21.60
2018-05-03T18:53:51.376Z,21.50
2018-05-03T18:56:20.223Z,21.40
2018-05-03T18:58:48.339Z,21.40
2018-05-03T19:01:17.284Z,21.10
2018-05-03T19:03:45.394Z,21.10
2018-05-03T19:06:13.488Z,21.00
2018-05-03T19:08:41.644Z,20.90
2018-05-03T19:11:09.744Z,20.80
2018-05-03T19:13:37.869Z,20.70
2018-05-03T19:16:05.995Z,20.60
2018-05-03T19:18:34.874Z,20.30
2018-05-03T19:21:03.759Z,20.20
2018-05-03T19:23:32.279Z,20.20
2018-05-03T19:26:00.379Z,20.10
2018-05-03T19:28:28.489Z,20.00
2018-05-03T19:30:56.630Z,19.80
2018-05-03T19:33:25.458Z,19.60
2018-05-03T19:35:53.680Z,19.60
2018-05-03T19:38:21.783Z,19.50
2018-05-03T19:40:49.899Z,19.40
2018-05-03T19:43:18.004Z,19.20
2018-05-03T19:45:46.101Z,19.10
2018-05-03T19:48:14.224Z,19.00
2018-05-03T19:50:42.320Z,18.90
2018-05-03T19:53:11.207Z,18.70
2018-05-03T19:55:39.304Z,18.70
2018-05-03T19:58:08.177Z,18.50
2018-05-03T20:00:36.277Z,18.50
2018-05-03T20:03:04.407Z,18.40
2018-05-03T20:05:32.507Z,18.30
2018-05-03T20:08:01.409Z,18.10
2018-05-03T20:10:30.284Z,18.10
2018-05-03T20:12:58.388Z,18.00
2018-05-03T20:15:27.260Z,17.90
2018-05-03T20:17:55.346Z,17.90
2018-05-03T20:20:24.223Z,17.70
2018-05-03T20:22:52.332Z,17.70
2018-05-03T20:25:21.207Z,17.50
2018-05-03T20:27:49.317Z,17.50
2018-05-03T20:30:17.420Z,17.40
2018-05-03T20:32:45.594Z,17.30
2018-05-03T20:35:13.603Z,17.20
2018-05-03T20:37:41.703Z,17.10
2018-05-03T20:40:10.337Z,17.00
2018-05-03T20:42:38.460Z,16.90
2018-05-03T20:45:06.573Z,16.80
2018-05-03T20:47:34.675Z,16.70
2018-05-03T20:50:02.804Z,16.70
2018-05-03T20:52:31.663Z,16.50
2018-05-03T20:54:59.943Z,16.50
2018-05-03T20:57:28.052Z,16.40
2018-05-03T20:59:56.943Z,16.30
2018-05-03T21:02:25.841Z,16.20
2018-05-03T21:04:54.703Z,16.10
2018-05-03T21:07:22.807Z,16.10
2018-05-03T21:09:51.673Z,16.00
2018-05-03T21:12:19.774Z,15.90
2018-05-03T21:14:47.892Z,15.90
2018-05-03T21:17:15.987Z,15.80
2018-05-03T21:19:44.096Z,15.70
2018-05-03T21:22:12.967Z,15.60
2018-05-03T21:24:41.085Z,15.60
2018-05-03T21:27:09.956Z,15.50
2018-05-03T21:29:38.905Z,15.40
2018-05-03T21:32:07.021Z,15.40
2018-05-03T21:34:35.152Z,15.30
2018-05-03T21:37:03.251Z,15.30
2018-05-03T21:39:31.355Z,15.20
2018-05-03T21:41:59.460Z,15.10
2018-05-03T21:44:28.347Z,15.00
2018-05-03T21:46:57.235Z,15.00
2018-05-03T21:49:26.127Z,14.90
2018-05-03T21:51:54.242Z,14.90
2018-05-03T21:54:22.386Z,14.80
2018-05-03T21:56:50.467Z,14.80
2018-05-03T21:59:18.576Z,14.70
2018-05-03T22:01:46.699Z,14.70
2018-05-03T22:04:14.800Z,14.60
2018-05-03T22:06:42.907Z,14.60
2018-05-03T22:09:11.019Z,14.50
2018-05-03T22:11:39.140Z,14.40
2018-05-03T22:14:07.219Z,14.40
2018-05-03T22:16:35.344Z,14.30
2018-05-03T22:19:03.459Z,14.30
2018-05-03T22:21:32.357Z,14.20
2018-05-03T22:24:01.227Z,14.20
2018-05-03T22:26:29.344Z,14.10
2018-05-03T22:28:57.475Z,14.10
2018-05-03T22:31:25.623Z,14.10
2018-05-03T22:33:53.726Z,14.00
2018-05-03T22:36:21.809Z,14.00
2018-05-03T22:38:49.939Z,14.00
2018-05-03T22:41:18.056Z,13.90
2018-05-03T22:43:46.174Z,13.90
2018-05-03T22:46:14.268Z,13.80
2018-05-03T22:48:42.386Z,13.70
2018-05-03T22:51:10.475Z,13.70
2018-05-03T22:53:38.570Z,13.60
2018-05-03T22:56:07.448Z,13.60
2018-05-03T22:58:35.572Z,13.50
2018-05-03T23:01:03.644Z,13.50
2018-05-03T23:03:31.771Z,13.50
2018-05-03T23:05:59.875Z,13.40
2018-05-03T23:08:28.043Z,13.40
2018-05-03T23:10:56.908Z,13.30
2018-05-03T23:13:25.029Z,13.30
2018-05-03T23:15:53.895Z,13.20
2018-05-03T23:18:22.009Z,13.20
2018-05-03T23:20:50.124Z,13.20
2018-05-03T23:23:18.228Z,13.10
2018-05-03T23:25:46.326Z,13.10
2018-05-03T23:28:15.196Z,13.00
2018-05-03T23:30:43.303Z,13.00
2018-05-03T23:33:11.396Z,12.90
2018-05-03T23:35:39.527Z,12.90
2018-05-03T23:38:07.612Z,12.90
2018-05-03T23:40:36.476Z,12.80
2018-05-03T23:43:04.608Z,12.80
2018-05-03T23:45:32.699Z,12.70
2018-05-03T23:48:00.805Z,12.70
2018-05-03T23:50:28.899Z,12.70
2018-05-03T23:52:57.016Z,12.60
2018-05-03T23:55:25.110Z,12.60
2018-05-03T23:57:53.237Z,12.50
